createdAt,value
2023-04-27T00:05:02.812Z,16.796875
2023-04-27T00:15:02.429Z,16.89453125
2023-04-27T00:25:02.406Z,17.39501953125
2023-04-27T00:35:02.330Z,18.39599609375
2023-04-27T00:45:02.261Z,18.20068359375
2023-04-27T00:55:02.185Z,18.701171875
2023-04-27T01:05:02.080Z,18.798828125
2023-04-27T01:15:02.011Z,19.20166015625
2023-04-27T01:25:01.982Z,19.29931640625
2023-04-27T01:35:01.915Z,19.20166015625
2023-04-27T01:45:01.848Z,19.29931640625
2023-04-27T01:55:01.808Z,19.39697265625
2023-04-27T02:05:01.726Z,19.29931640625
2023-04-27T02:15:01.566Z,19.20166015625
2023-04-27T02:25:01.592Z,17.8955078125
2023-04-27T02:35:01.504Z,18.00537109375
2023-04-27T02:45:01.445Z,17.6025390625
2023-04-27T02:55:01.342Z,16.50390625
2023-04-27T03:05:01.283Z,15.90576171875
2023-04-27T03:15:01.223Z,15.29541015625
2023-04-27T03:25:01.161Z,15.00244140625
2023-04-27T03:35:01.022Z,14.697265625
2023-04-27T03:45:01.035Z,14.697265625
2023-04-27T03:55:00.959Z,14.599609375
2023-04-27T04:05:01.109Z,14.501953125
2023-04-27T04:15:00.725Z,14.404296875
2023-04-27T04:25:00.698Z,14.09912109375
2023-04-27T04:35:02.385Z,13.90380859375
2023-04-27T04:45:00.619Z,13.5986328125
2023-04-27T04:55:00.564Z,13.19580078125
2023-04-27T05:05:00.423Z,12.6953125
2023-04-27T05:15:00.358Z,12.40234375
2023-04-27T05:25:00.405Z,12.200927734375
2023-04-27T05:35:00.229Z,11.99951171875
2023-04-27T05:45:00.222Z,11.700439453125
2023-04-27T05:55:00.112Z,11.297607421875
2023-04-27T06:05:00.245Z,11.102294921875
2023-04-27T06:15:00.221Z,10.797119140625
2023-04-27T06:24:59.970Z,10.498046875
2023-04-27T06:34:59.828Z,10.498046875
2023-04-27T06:44:59.784Z,10.400390625
2023-04-27T06:54:59.684Z,10.198974609375
2023-04-27T07:04:59.603Z,9.99755859375
2023-04-27T07:14:59.475Z,9.80224609375
2023-04-27T07:24:59.479Z,9.698486328125
2023-04-27T07:34:59.389Z,9.4970703125
2023-04-27T07:44:59.347Z,9.600830078125
2023-04-27T07:54:59.192Z,9.4970703125
2023-04-27T08:04:59.736Z,9.4970703125
2023-04-27T08:14:59.141Z,9.3017578125
2023-04-27T08:24:58.972Z,9.3017578125
2023-04-27T08:34:58.908Z,9.3017578125
2023-04-27T08:44:58.979Z,9.197998046875
2023-04-27T08:54:58.844Z,9.100341796875
2023-04-27T09:04:59.043Z,9.100341796875
2023-04-27T09:14:58.794Z,9.100341796875
2023-04-27T09:24:58.714Z,9.100341796875
2023-04-27T09:34:58.615Z,9.002685546875
2023-04-27T09:44:58.486Z,9.002685546875
2023-04-27T09:54:58.378Z,9.002685546875
2023-04-27T10:04:58.415Z,9.002685546875
2023-04-27T10:14:58.346Z,9.100341796875
2023-04-27T10:24:58.221Z,9.002685546875
2023-04-27T10:34:58.429Z,9.002685546875
2023-04-27T10:44:58.101Z,8.89892578125
2023-04-27T10:54:58.026Z,8.89892578125
2023-04-27T11:04:58.141Z,8.89892578125
2023-04-27T11:14:59.166Z,9.002685546875
2023-04-27T11:24:57.898Z,8.89892578125
2023-04-27T11:34:59.589Z,8.89892578125
2023-04-27T11:44:57.640Z,8.89892578125
2023-04-27T11:54:57.663Z,8.80126953125
2023-04-27T12:04:57.688Z,8.80126953125
2023-04-27T12:14:57.430Z,8.80126953125
2023-04-27T12:24:57.424Z,8.89892578125
2023-04-27T12:34:57.349Z,8.89892578125
2023-04-27T12:44:57.230Z,8.80126953125
2023-04-27T12:54:57.254Z,8.89892578125
2023-04-27T13:04:57.267Z,8.89892578125
2023-04-27T13:14:57.076Z,8.80126953125
2023-04-27T13:24:56.986Z,8.697509765625
2023-04-27T13:34:56.855Z,8.697509765625
2023-04-27T13:44:56.811Z,8.697509765625
2023-04-27T13:54:56.894Z,8.599853515625
2023-04-27T14:04:56.867Z,8.599853515625
2023-04-27T14:14:58.462Z,8.599853515625
2023-04-27T14:24:56.583Z,8.502197265625
2023-04-27T14:34:56.546Z,8.599853515625
2023-04-27T14:44:56.447Z,8.502197265625
2023-04-27T14:54:57.374Z,8.3984375
2023-04-27T15:04:56.573Z,8.3984375
2023-04-27T15:14:56.273Z,8.3984375
2023-04-27T15:24:56.116Z,8.3984375
2023-04-27T15:34:56.398Z,8.30078125
2023-04-27T15:44:55.985Z,8.30078125
2023-04-27T15:54:55.898Z,8.197021484375
2023-04-27T16:04:55.889Z,8.197021484375
2023-04-27T16:14:55.784Z,8.197021484375
2023-04-27T16:24:55.820Z,8.197021484375
2023-04-27T16:34:55.705Z,8.197021484375
2023-04-27T16:44:55.563Z,8.099365234375
2023-04-27T16:54:55.492Z,8.099365234375
2023-04-27T17:04:55.466Z,8.099365234375
2023-04-27T17:14:55.400Z,7.89794921875
2023-04-27T17:24:55.358Z,7.89794921875
2023-04-27T17:34:55.208Z,8.001708984375
2023-04-27T17:44:55.210Z,7.89794921875
2023-04-27T17:54:55.170Z,7.80029296875
2023-04-27T18:04:55.026Z,7.80029296875
2023-04-27T18:14:55.527Z,7.70263671875
2023-04-27T18:24:54.993Z,7.80029296875
2023-04-27T18:34:54.921Z,7.70263671875
2023-04-27T18:44:54.847Z,7.80029296875
2023-04-27T18:54:54.684Z,7.70263671875
2023-04-27T19:05:10.380Z,7.70263671875
2023-04-27T19:14:54.723Z,7.70263671875
2023-04-27T19:24:54.577Z,7.89794921875
2023-04-27T19:34:54.435Z,8.001708984375
2023-04-27T19:44:54.378Z,8.099365234375
2023-04-27T19:54:54.371Z,8.099365234375
2023-04-27T20:04:54.677Z,8.30078125
2023-04-27T20:14:54.188Z,8.3984375
2023-04-27T20:24:54.133Z,8.3984375
2023-04-27T20:34:54.198Z,8.599853515625
2023-04-27T20:44:54.067Z,8.697509765625
2023-04-27T20:54:54.022Z,8.80126953125
2023-04-27T21:04:53.937Z,9.002685546875
2023-04-27T21:14:53.770Z,9.100341796875
2023-04-27T21:24:53.757Z,9.100341796875
2023-04-27T21:34:53.695Z,9.100341796875
2023-04-27T21:44:53.589Z,9.3017578125
2023-04-27T21:54:53.522Z,9.600830078125
2023-04-27T22:04:53.598Z,10.400390625
2023-04-27T22:14:53.435Z,11.297607421875
2023-04-27T22:24:53.372Z,11.99951171875
2023-04-27T22:34:53.286Z,13.00048828125
2023-04-27T22:44:53.221Z,13.5009765625
2023-04-27T22:54:53.135Z,14.09912109375
2023-04-27T23:04:53.024Z,14.697265625
2023-04-27T23:14:52.924Z,15.19775390625
2023-04-27T23:24:52.918Z,15.29541015625
2023-04-27T23:34:52.789Z,15.90576171875
2023-04-27T23:44:52.752Z,16.29638671875
2023-04-27T23:54:52.667Z,16.89453125
